Time;durP1;ratioP1;P1;durP2;ratioP2;P2;SDS_P1;SDS_P2;PMS_P1;PMS_P2;Temp;Humidity;BMP_temperature;BMP_pressure;BME280_temperature;BME280_humidity;BME280_pressure;Samples;Min_cycle;Max_cycle;Signal;HPM_P1;HPM_P2
2020/12/09 00:01:50;;;;;;;53.37;28.30;;;;;;;;;;4990067;28;20273;-75
2020/12/09 00:04:17;;;;;;;45.40;23.93;;;;;;;;;;4992550;28;20335;-74
2020/12/09 00:06:43;;;;;;;49.00;25.83;;;;;;;;;;5007820;28;20281;-74
2020/12/09 00:09:10;;;;;;;49.37;27.07;;;;;;;;;;5002669;28;20274;-74
2020/12/09 00:11:36;;;;;;;47.03;25.53;;;;;;;;;;5000425;28;20265;-74
2020/12/09 00:14:03;;;;;;;48.90;24.23;;;;;;;;;;5009794;28;20323;-75
2020/12/09 00:16:30;;;;;;;41.27;23.30;;;;;;;;;;5009085;28;20884;-75
2020/12/09 00:18:56;;;;;;;41.93;23.53;;;;;;;;;;5007001;28;20316;-75
2020/12/09 00:21:23;;;;;;;43.07;23.80;;;;;;;;;;5008180;28;20787;-75
2020/12/09 00:23:50;;;;;;;42.50;24.00;;;;;;;;;;5007802;28;20285;-75
2020/12/09 00:26:20;;;;;;;38.50;20.77;;;;;;;;;;5009679;28;20308;-75
2020/12/09 00:28:46;;;;;;;40.93;23.77;;;;;;;;;;5011080;28;20767;-74
2020/12/09 00:31:16;;;;;;;37.80;19.73;;;;;;;;;;5000444;28;20347;-74
2020/12/09 00:33:43;;;;;;;39.37;22.13;;;;;;;;;;5012938;28;20755;-75
2020/12/09 00:36:09;;;;;;;41.73;23.33;;;;;;;;;;5028161;28;20322;-74
2020/12/09 00:38:35;;;;;;;40.03;22.73;;;;;;;;;;5008650;28;21096;-75
2020/12/09 00:41:01;;;;;;;43.67;23.60;;;;;;;;;;5011727;28;20291;-74
2020/12/09 00:43:27;;;;;;;39.33;21.57;;;;;;;;;;5013457;28;20291;-75
2020/12/09 00:45:53;;;;;;;39.80;21.10;;;;;;;;;;5012832;28;20257;-75
2020/12/09 00:48:22;;;;;;;38.80;21.67;;;;;;;;;;5011900;28;20276;-74
2020/12/09 00:50:48;;;;;;;43.47;24.43;;;;;;;;;;5019265;28;20284;-73
2020/12/09 00:53:14;;;;;;;42.17;22.20;;;;;;;;;;5012602;28;20269;-75
2020/12/09 00:55:40;;;;;;;40.40;22.00;;;;;;;;;;5012506;28;20775;-75
2020/12/09 00:58:06;;;;;;;41.80;22.57;;;;;;;;;;5006045;28;20528;-78
2020/12/09 01:00:32;;;;;;;39.80;23.00;;;;;;;;;;5013116;28;20303;-74
2020/12/09 01:02:58;;;;;;;42.23;23.93;;;;;;;;;;5007617;28;20269;-74
2020/12/09 01:05:24;;;;;;;40.60;21.90;;;;;;;;;;5005337;28;20279;-75
2020/12/09 01:07:50;;;;;;;37.67;21.20;;;;;;;;;;5011167;28;20277;-75
2020/12/09 01:10:16;;;;;;;39.07;21.93;;;;;;;;;;5008704;28;20869;-75
2020/12/09 01:12:43;;;;;;;37.57;21.00;;;;;;;;;;5011439;28;20265;-75
2020/12/09 01:15:09;;;;;;;38.37;21.70;;;;;;;;;;5010548;28;20307;-75
2020/12/09 01:17:35;;;;;;;45.13;24.20;;;;;;;;;;5012390;28;20269;-75
2020/12/09 01:20:03;;;;;;;42.00;23.87;;;;;;;;;;5011159;28;20814;-75
2020/12/09 01:22:29;;;;;;;40.00;24.10;;;;;;;;;;5004245;28;20269;-75
2020/12/09 01:24:55;;;;;;;45.80;23.90;;;;;;;;;;5010467;28;20273;-75
2020/12/09 01:27:25;;;;;;;43.50;23.97;;;;;;;;;;5010959;28;20284;-75
2020/12/09 01:29:51;;;;;;;45.40;26.03;;;;;;;;;;5011040;28;20775;-74
2020/12/09 01:32:17;;;;;;;51.37;26.23;;;;;;;;;;5009800;28;20257;-75
2020/12/09 01:34:44;;;;;;;42.90;24.70;;;;;;;;;;5011830;28;20269;-75
2020/12/09 01:37:10;;;;;;;45.20;24.63;;;;;;;;;;5009988;28;20273;-75
2020/12/09 01:39:36;;;;;;;45.80;24.83;;;;;;;;;;5011367;28;20277;-75
2020/12/09 01:42:04;;;;;;;41.73;24.00;;;;;;;;;;5005558;28;20307;-75
2020/12/09 01:44:30;;;;;;;47.50;25.07;;;;;;;;;;5011781;28;20315;-75
2020/12/09 01:46:56;;;;;;;48.20;27.17;;;;;;;;;;5010727;28;20356;-75
2020/12/09 01:49:23;;;;;;;51.43;26.23;;;;;;;;;;5012318;28;20376;-75
2020/12/09 01:51:49;;;;;;;50.77;26.30;;;;;;;;;;5010863;28;20281;-75
2020/12/09 01:54:15;;;;;;;54.67;28.23;;;;;;;;;;5012018;28;20257;-75
2020/12/09 01:56:41;;;;;;;50.93;26.43;;;;;;;;;;5008236;28;20317;-75
2020/12/09 01:59:07;;;;;;;52.53;28.80;;;;;;;;;;5007834;28;20279;-76
2020/12/09 02:01:33;;;;;;;59.17;29.63;;;;;;;;;;5009856;28;20296;-75
2020/12/09 02:03:59;;;;;;;54.47;29.87;;;;;;;;;;5009174;28;20265;-75
2020/12/09 02:06:25;;;;;;;56.10;29.70;;;;;;;;;;5011506;28;20256;-75
2020/12/09 02:08:52;;;;;;;57.60;30.43;;;;;;;;;;5008704;28;20272;-76
2020/12/09 02:11:18;;;;;;;50.10;27.87;;;;;;;;;;5010178;28;20269;-75
2020/12/09 02:13:45;;;;;;;55.80;30.00;;;;;;;;;;5011290;28;20356;-75
2020/12/09 02:16:17;;;;;;;67.03;32.27;;;;;;;;;;5010649;28;20311;-75
2020/12/09 02:18:44;;;;;;;63.03;29.13;;;;;;;;;;5005456;28;20760;-75
2020/12/09 02:21:10;;;;;;;60.53;30.73;;;;;;;;;;5002678;28;20295;-74
2020/12/09 02:23:36;;;;;;;55.63;28.13;;;;;;;;;;5011131;28;20268;-75
2020/12/09 02:26:03;;;;;;;53.10;28.43;;;;;;;;;;5010770;28;20347;-75
2020/12/09 02:28:29;;;;;;;50.50;28.80;;;;;;;;;;5009078;28;20327;-75
2020/12/09 02:30:55;;;;;;;51.43;27.50;;;;;;;;;;5009833;28;20740;-75
2020/12/09 02:33:21;;;;;;;49.90;26.97;;;;;;;;;;5010028;28;20272;-75
2020/12/09 02:35:47;;;;;;;51.90;27.00;;;;;;;;;;5009196;28;20331;-74
2020/12/09 02:38:13;;;;;;;46.27;25.87;;;;;;;;;;5010423;28;20301;-75
2020/12/09 02:40:40;;;;;;;49.07;27.27;;;;;;;;;;5005703;28;20281;-75
2020/12/09 02:43:06;;;;;;;52.63;28.80;;;;;;;;;;5009193;28;20275;-75
2020/12/09 02:45:32;;;;;;;52.03;27.10;;;;;;;;;;5009358;28;20895;-75
2020/12/09 02:47:58;;;;;;;52.20;27.47;;;;;;;;;;5008541;28;20768;-74
2020/12/09 02:50:24;;;;;;;51.70;27.40;;;;;;;;;;5004064;28;20304;-75
2020/12/09 02:52:50;;;;;;;54.40;29.67;;;;;;;;;;5009832;28;20764;-75
2020/12/09 02:55:18;;;;;;;55.00;28.27;;;;;;;;;;5009988;28;21150;-75
2020/12/09 02:57:44;;;;;;;51.10;27.97;;;;;;;;;;5009202;28;20305;-75
2020/12/09 03:00:10;;;;;;;53.67;29.27;;;;;;;;;;5006071;28;20296;-74
2020/12/09 03:02:36;;;;;;;48.00;26.70;;;;;;;;;;5009104;28;20261;-75
2020/12/09 03:05:03;;;;;;;50.03;25.87;;;;;;;;;;5008415;28;20352;-75
2020/12/09 03:07:29;;;;;;;50.07;26.97;;;;;;;;;;5008614;28;20261;-75
2020/12/09 03:09:56;;;;;;;50.20;27.63;;;;;;;;;;5008886;28;20269;-74
2020/12/09 03:12:22;;;;;;;54.47;29.67;;;;;;;;;;5010029;28;20372;-75
2020/12/09 03:14:48;;;;;;;51.40;26.70;;;;;;;;;;5008003;28;20272;-75
2020/12/09 03:17:14;;;;;;;47.23;24.53;;;;;;;;;;5008476;28;20273;-75
2020/12/09 03:19:40;;;;;;;52.80;27.90;;;;;;;;;;5008245;28;20295;-75
2020/12/09 03:22:06;;;;;;;46.67;25.30;;;;;;;;;;5008554;28;20264;-74
2020/12/09 03:24:32;;;;;;;49.23;26.63;;;;;;;;;;4999242;28;20689;-75
2020/12/09 03:26:58;;;;;;;47.47;26.37;;;;;;;;;;5006164;28;20335;-75
2020/12/09 03:29:24;;;;;;;41.83;24.23;;;;;;;;;;5007912;28;20576;-76
2020/12/09 03:31:51;;;;;;;44.50;25.10;;;;;;;;;;5008391;28;20267;-75
2020/12/09 03:34:18;;;;;;;48.83;25.50;;;;;;;;;;5008992;28;20269;-75
2020/12/09 03:36:44;;;;;;;49.03;26.63;;;;;;;;;;5006699;28;20269;-75
2020/12/09 03:39:10;;;;;;;50.87;27.13;;;;;;;;;;5007735;28;20348;-75
2020/12/09 03:41:36;;;;;;;47.33;24.90;;;;;;;;;;5009370;28;20304;-75
2020/12/09 03:44:02;;;;;;;53.03;26.67;;;;;;;;;;5009484;28;20588;-75
2020/12/09 03:46:28;;;;;;;45.87;26.17;;;;;;;;;;5009116;28;20269;-75
2020/12/09 03:48:54;;;;;;;47.73;25.57;;;;;;;;;;5006900;28;20316;-75
2020/12/09 03:51:20;;;;;;;45.03;24.87;;;;;;;;;;5008153;28;20311;-75
2020/12/09 03:53:46;;;;;;;45.67;26.37;;;;;;;;;;5009109;28;20256;-76
2020/12/09 03:56:12;;;;;;;44.50;24.80;;;;;;;;;;5007841;28;20311;-75
2020/12/09 03:58:38;;;;;;;51.73;26.37;;;;;;;;;;5007089;28;20295;-75
2020/12/09 04:01:06;;;;;;;43.97;23.43;;;;;;;;;;5003559;28;20784;-75
2020/12/09 04:03:32;;;;;;;46.83;23.93;;;;;;;;;;4993630;28;20257;-74
2020/12/09 04:05:58;;;;;;;43.33;24.87;;;;;;;;;;5005600;28;20280;-75
2020/12/09 04:08:24;;;;;;;48.50;25.47;;;;;;;;;;5007929;28;20281;-75
2020/12/09 04:10:51;;;;;;;42.77;23.07;;;;;;;;;;5008922;28;20271;-76
2020/12/09 04:13:17;;;;;;;43.13;25.50;;;;;;;;;;5008146;28;20265;-75
2020/12/09 04:15:43;;;;;;;43.67;24.23;;;;;;;;;;5008026;28;21016;-76
2020/12/09 04:18:09;;;;;;;39.97;23.37;;;;;;;;;;5008664;28;20284;-76
2020/12/09 04:20:35;;;;;;;47.10;24.17;;;;;;;;;;5007887;28;20834;-76
2020/12/09 04:23:01;;;;;;;41.13;23.53;;;;;;;;;;5008981;28;20275;-76
2020/12/09 04:25:27;;;;;;;47.77;23.77;;;;;;;;;;5009320;28;20303;-76
2020/12/09 04:27:53;;;;;;;43.43;23.90;;;;;;;;;;5008114;28;20767;-76
2020/12/09 04:30:19;;;;;;;44.73;25.67;;;;;;;;;;5008905;28;20257;-76
2020/12/09 04:32:45;;;;;;;44.93;24.50;;;;;;;;;;5007857;28;20289;-76
2020/12/09 04:35:12;;;;;;;48.43;25.53;;;;;;;;;;5011282;28;20316;-75
2020/12/09 04:37:38;;;;;;;48.50;26.23;;;;;;;;;;5007551;28;20268;-76
2020/12/09 04:40:05;;;;;;;49.97;24.27;;;;;;;;;;5007322;28;20873;-75
2020/12/09 04:42:31;;;;;;;46.80;24.00;;;;;;;;;;5008745;28;20771;-76
2020/12/09 04:44:57;;;;;;;48.57;23.80;;;;;;;;;;5008337;28;20281;-76
2020/12/09 04:47:23;;;;;;;41.53;22.97;;;;;;;;;;5007834;28;21077;-76
2020/12/09 04:49:50;;;;;;;47.57;24.60;;;;;;;;;;5007332;28;21051;-76
2020/12/09 04:52:51;;;;;;;47.47;24.20;;;;;;;;;;4999796;28;20269;-76
2020/12/09 04:55:18;;;;;;;42.70;24.20;;;;;;;;;;4967459;28;20848;-76
2020/12/09 04:57:52;;;;;;;45.27;25.00;;;;;;;;;;5006049;28;20395;-75
2020/12/09 05:00:18;;;;;;;45.90;24.00;;;;;;;;;;5000018;28;20890;-75
2020/12/09 05:02:45;;;;;;;52.60;26.07;;;;;;;;;;4998801;28;20338;-75
2020/12/09 05:05:13;;;;;;;56.20;28.23;;;;;;;;;;5007742;28;20323;-75
2020/12/09 05:07:42;;;;;;;53.83;25.80;;;;;;;;;;5007289;28;20268;-75
2020/12/09 05:10:08;;;;;;;50.27;28.07;;;;;;;;;;5008359;28;20844;-75
2020/12/09 05:12:42;;;;;;;53.53;27.43;;;;;;;;;;5010194;28;20292;-75
2020/12/09 05:15:11;;;;;;;53.70;26.83;;;;;;;;;;5010598;28;20273;-75
2020/12/09 05:17:49;;;;;;;48.60;25.43;;;;;;;;;;5009679;28;20061;-75
2020/12/09 05:20:15;;;;;;;55.90;27.80;;;;;;;;;;5010485;28;20300;-76
2020/12/09 05:22:44;;;;;;;52.63;27.37;;;;;;;;;;5008891;28;20265;-75
2020/12/09 05:25:11;;;;;;;56.43;27.33;;;;;;;;;;5009704;28;20316;-76
2020/12/09 05:27:37;;;;;;;60.37;28.30;;;;;;;;;;5008623;28;20253;-76
2020/12/09 05:30:04;;;;;;;60.27;28.33;;;;;;;;;;5009437;28;20273;-76
2020/12/09 05:32:30;;;;;;;52.00;25.87;;;;;;;;;;5008433;28;20277;-75
2020/12/09 05:34:56;;;;;;;60.40;28.10;;;;;;;;;;5008886;28;20387;-76
2020/12/09 05:37:22;;;;;;;63.70;30.63;;;;;;;;;;5008383;28;20261;-75
2020/12/09 05:39:53;;;;;;;64.43;33.63;;;;;;;;;;5010491;28;20371;-75
2020/12/09 05:42:20;;;;;;;61.67;30.23;;;;;;;;;;5008272;28;20790;-75
2020/12/09 05:44:47;;;;;;;60.50;28.73;;;;;;;;;;5009053;28;20866;-74
2020/12/09 05:47:14;;;;;;;54.03;26.93;;;;;;;;;;5006602;28;20819;-75
2020/12/09 05:49:40;;;;;;;60.73;29.57;;;;;;;;;;5004212;28;20803;-75
2020/12/09 05:52:08;;;;;;;63.67;28.90;;;;;;;;;;5007018;28;20265;-75
2020/12/09 05:54:37;;;;;;;65.60;29.80;;;;;;;;;;5007334;28;21111;-76
2020/12/09 05:57:04;;;;;;;59.43;29.40;;;;;;;;;;5005721;28;20295;-76
2020/12/09 05:59:34;;;;;;;58.50;27.47;;;;;;;;;;5006960;28;20273;-75
2020/12/09 06:02:11;;;;;;;60.37;29.60;;;;;;;;;;5003505;28;20292;-75
2020/12/09 06:04:51;;;;;;;58.50;27.63;;;;;;;;;;5004474;28;20277;-75
2020/12/09 06:07:17;;;;;;;57.87;27.90;;;;;;;;;;5007760;28;20264;-75
2020/12/09 06:10:05;;;;;;;68.37;31.37;;;;;;;;;;5004459;28;20806;-76
2020/12/09 06:12:47;;;;;;;62.73;29.03;;;;;;;;;;5006900;28;20403;-76
2020/12/09 06:15:14;;;;;;;71.33;31.63;;;;;;;;;;5007072;28;21163;-76
2020/12/09 06:17:40;;;;;;;72.97;32.47;;;;;;;;;;5006087;28;20326;-76
2020/12/09 06:20:06;;;;;;;84.37;33.27;;;;;;;;;;5007119;28;20556;-76
2020/12/09 06:22:32;;;;;;;75.23;32.87;;;;;;;;;;5009160;28;20277;-76
2020/12/09 06:25:08;;;;;;;78.80;32.13;;;;;;;;;;5006973;28;20273;-75
2020/12/09 06:27:36;;;;;;;79.47;34.07;;;;;;;;;;5007226;28;20355;-76
2020/12/09 06:30:04;;;;;;;86.70;32.40;;;;;;;;;;5009686;28;20277;-76
2020/12/09 06:32:46;;;;;;;80.17;31.00;;;;;;;;;;5010205;28;20269;-75
2020/12/09 06:35:12;;;;;;;80.73;30.23;;;;;;;;;;5007537;28;20269;-76
2020/12/09 06:37:38;;;;;;;75.50;31.30;;;;;;;;;;5009912;28;20265;-76
2020/12/09 06:40:08;;;;;;;70.57;29.60;;;;;;;;;;5008125;28;20380;-76
2020/12/09 06:42:34;;;;;;;67.97;27.30;;;;;;;;;;5005676;28;20288;-76
2020/12/09 06:45:02;;;;;;;69.47;30.73;;;;;;;;;;5006302;28;20288;-75
2020/12/09 06:47:28;;;;;;;82.30;32.17;;;;;;;;;;5007738;28;20767;-76
2020/12/09 06:49:55;;;;;;;81.17;33.20;;;;;;;;;;5004198;28;20363;-76
2020/12/09 06:52:24;;;;;;;80.60;36.40;;;;;;;;;;5009968;28;20776;-75
2020/12/09 06:54:50;;;;;;;78.70;30.27;;;;;;;;;;5002223;28;20280;-75
2020/12/09 06:57:23;;;;;;;82.63;31.67;;;;;;;;;;5003354;28;20760;-75
2020/12/09 06:59:49;;;;;;;67.87;29.87;;;;;;;;;;5006597;28;20507;-76
2020/12/09 07:02:28;;;;;;;61.63;29.00;;;;;;;;;;5008450;28;20430;-76
2020/12/09 07:04:54;;;;;;;58.17;28.07;;;;;;;;;;4996046;28;20257;-76
2020/12/09 07:07:36;;;;;;;59.10;26.03;;;;;;;;;;5001879;28;20301;-75
2020/12/09 07:10:05;;;;;;;60.57;26.10;;;;;;;;;;5009423;28;20275;-74
2020/12/09 07:12:31;;;;;;;52.97;25.10;;;;;;;;;;5009336;28;21048;-75
2020/12/09 07:14:58;;;;;;;52.73;25.97;;;;;;;;;;5009088;28;20273;-75
2020/12/09 07:17:25;;;;;;;52.07;24.70;;;;;;;;;;5010207;28;20264;-76
2020/12/09 07:19:51;;;;;;;53.90;25.47;;;;;;;;;;5001360;28;20806;-75
2020/12/09 07:22:17;;;;;;;65.40;26.57;;;;;;;;;;5007406;28;20295;-76
2020/12/09 07:24:44;;;;;;;62.27;27.43;;;;;;;;;;5008090;28;20269;-76
2020/12/09 07:27:12;;;;;;;55.93;23.37;;;;;;;;;;5004873;28;20257;-75
2020/12/09 07:29:41;;;;;;;52.93;25.30;;;;;;;;;;5007314;28;20291;-75
2020/12/09 07:32:08;;;;;;;53.30;24.20;;;;;;;;;;5006578;28;20268;-75
2020/12/09 07:34:35;;;;;;;47.53;22.93;;;;;;;;;;5005848;28;20605;-74
2020/12/09 07:37:01;;;;;;;50.43;25.23;;;;;;;;;;5006519;28;20281;-75
2020/12/09 07:39:33;;;;;;;48.13;24.40;;;;;;;;;;5004213;28;20287;-75
2020/12/09 07:42:00;;;;;;;44.53;23.03;;;;;;;;;;5005853;28;20261;-76
2020/12/09 07:44:27;;;;;;;43.77;23.20;;;;;;;;;;5005317;28;20269;-76
2020/12/09 07:46:55;;;;;;;44.67;22.87;;;;;;;;;;5005182;28;20261;-76
2020/12/09 07:49:21;;;;;;;43.97;20.47;;;;;;;;;;5007025;28;20423;-76
2020/12/09 07:51:48;;;;;;;35.17;18.90;;;;;;;;;;5005615;28;20277;-76
2020/12/09 07:54:14;;;;;;;35.37;18.73;;;;;;;;;;5005178;28;20279;-75
2020/12/09 07:56:41;;;;;;;40.27;20.60;;;;;;;;;;5005078;28;20262;-76
2020/12/09 07:59:07;;;;;;;39.77;22.30;;;;;;;;;;5002727;28;20297;-75
2020/12/09 08:01:33;;;;;;;34.70;19.87;;;;;;;;;;5002520;28;20959;-78
2020/12/09 08:03:59;;;;;;;41.90;22.67;;;;;;;;;;5005706;28;20894;-76
2020/12/09 08:06:25;;;;;;;46.97;24.73;;;;;;;;;;5004941;28;20272;-75
2020/12/09 08:08:54;;;;;;;41.70;22.73;;;;;;;;;;5006045;28;20279;-75
2020/12/09 08:11:20;;;;;;;45.10;25.27;;;;;;;;;;5005808;28;20331;-76
2020/12/09 08:13:46;;;;;;;45.50;28.47;;;;;;;;;;5004286;28;20281;-76
2020/12/09 08:16:13;;;;;;;46.53;26.07;;;;;;;;;;5006189;28;20268;-76
2020/12/09 08:18:43;;;;;;;36.80;21.37;;;;;;;;;;5004068;28;20307;-75
2020/12/09 08:21:09;;;;;;;42.80;22.37;;;;;;;;;;5005702;28;20280;-77
2020/12/09 08:23:39;;;;;;;39.97;22.57;;;;;;;;;;4999425;28;20272;-75
2020/12/09 08:26:05;;;;;;;36.10;20.43;;;;;;;;;;5004847;28;20779;-76
2020/12/09 08:28:33;;;;;;;39.43;22.13;;;;;;;;;;5005878;28;20288;-77
2020/12/09 08:30:59;;;;;;;33.40;19.43;;;;;;;;;;5006496;28;20299;-77
2020/12/09 08:33:26;;;;;;;35.73;18.57;;;;;;;;;;5004813;28;20322;-75
2020/12/09 08:35:58;;;;;;;35.37;20.57;;;;;;;;;;5004582;28;20281;-76
2020/12/09 08:38:29;;;;;;;37.90;19.95;;;;;;;;;;5006552;28;20946;-76
2020/12/09 08:41:00;;;;;;;36.73;19.90;;;;;;;;;;5005008;28;20033;-75
2020/12/09 08:43:27;;;;;;;36.47;18.97;;;;;;;;;;5006094;28;20322;-75
2020/12/09 08:45:53;;;;;;;37.13;19.50;;;;;;;;;;5006183;28;20249;-74
2020/12/09 08:48:20;;;;;;;34.83;20.03;;;;;;;;;;5008193;28;20839;-75
2020/12/09 08:50:47;;;;;;;37.57;19.67;;;;;;;;;;5008584;28;20814;-76
2020/12/09 08:53:13;;;;;;;34.73;19.30;;;;;;;;;;5000185;28;20432;-76
2020/12/09 08:55:41;;;;;;;36.27;18.97;;;;;;;;;;5010354;28;20261;-76
2020/12/09 08:58:07;;;;;;;33.00;18.27;;;;;;;;;;5008110;28;20273;-75
2020/12/09 09:00:36;;;;;;;37.93;18.10;;;;;;;;;;5008203;28;20288;-76
2020/12/09 09:03:03;;;;;;;45.17;23.93;;;;;;;;;;5011012;28;20303;-76
2020/12/09 09:05:31;;;;;;;33.80;18.67;;;;;;;;;;5008942;28;20644;-75
2020/12/09 09:07:57;;;;;;;35.63;19.63;;;;;;;;;;5008458;28;20257;-74
2020/12/09 09:10:23;;;;;;;39.53;20.47;;;;;;;;;;5010672;28;20322;-76
2020/12/09 09:12:49;;;;;;;35.93;19.33;;;;;;;;;;5010704;28;20367;-76
2020/12/09 09:15:15;;;;;;;41.77;19.10;;;;;;;;;;5008595;28;20272;-76
2020/12/09 09:17:41;;;;;;;37.07;18.87;;;;;;;;;;5008749;28;20272;-78
2020/12/09 09:20:08;;;;;;;39.43;20.40;;;;;;;;;;5008266;28;20277;-76
2020/12/09 09:22:34;;;;;;;37.73;19.27;;;;;;;;;;5010043;28;20271;-76
2020/12/09 09:25:00;;;;;;;56.97;20.97;;;;;;;;;;5009517;28;20256;-76
2020/12/09 09:27:26;;;;;;;75.47;21.47;;;;;;;;;;5007600;28;20265;-74
2020/12/09 09:29:53;;;;;;;43.00;19.73;;;;;;;;;;5009523;28;20269;-76
2020/12/09 09:32:20;;;;;;;35.00;17.83;;;;;;;;;;5008294;28;20331;-76
2020/12/09 09:34:46;;;;;;;55.10;18.87;;;;;;;;;;5008148;28;20273;-76
2020/12/09 09:37:12;;;;;;;36.90;19.80;;;;;;;;;;5008578;28;20308;-76
2020/12/09 09:39:38;;;;;;;39.27;20.00;;;;;;;;;;5008098;28;20265;-76
2020/12/09 09:42:05;;;;;;;36.77;19.10;;;;;;;;;;5007443;28;20280;-76
2020/12/09 09:44:31;;;;;;;37.00;18.20;;;;;;;;;;5008420;28;20276;-76
2020/12/09 09:46:58;;;;;;;30.10;16.43;;;;;;;;;;5006852;28;20293;-76
2020/12/09 09:49:25;;;;;;;32.13;16.70;;;;;;;;;;5007393;28;20281;-76
2020/12/09 09:51:52;;;;;;;34.43;19.40;;;;;;;;;;5007330;28;20269;-75
2020/12/09 09:54:19;;;;;;;31.90;17.33;;;;;;;;;;5004138;28;20281;-75
2020/12/09 09:56:45;;;;;;;32.17;16.07;;;;;;;;;;5006256;28;20304;-75
2020/12/09 09:59:12;;;;;;;31.13;16.80;;;;;;;;;;5007701;28;20330;-75
2020/12/09 10:01:38;;;;;;;31.70;16.67;;;;;;;;;;5009798;28;20371;-75
2020/12/09 10:04:06;;;;;;;35.63;17.70;;;;;;;;;;5007750;28;20260;-75
2020/12/09 10:06:33;;;;;;;36.67;19.17;;;;;;;;;;5003323;28;20270;-76
2020/12/09 10:09:00;;;;;;;34.67;19.43;;;;;;;;;;5007316;28;20261;-75
2020/12/09 10:11:26;;;;;;;31.63;16.70;;;;;;;;;;5007949;28;20348;-75
2020/12/09 10:13:52;;;;;;;33.07;19.10;;;;;;;;;;5008522;28;20320;-75
2020/12/09 10:16:27;;;;;;;34.70;18.47;;;;;;;;;;5004684;28;20261;-75
2020/12/09 10:18:54;;;;;;;36.90;19.60;;;;;;;;;;5006531;28;20265;-75
2020/12/09 10:21:24;;;;;;;38.53;20.40;;;;;;;;;;4993380;28;20402;-75
2020/12/09 10:23:50;;;;;;;39.67;21.90;;;;;;;;;;5007657;28;20272;-75
2020/12/09 10:26:16;;;;;;;36.40;18.30;;;;;;;;;;5008140;28;20297;-75
2020/12/09 10:28:43;;;;;;;41.90;18.33;;;;;;;;;;5007780;28;20272;-75
2020/12/09 10:31:09;;;;;;;44.90;22.73;;;;;;;;;;5009585;28;20265;-76
2020/12/09 10:33:35;;;;;;;47.07;20.50;;;;;;;;;;5008234;28;20334;-76
2020/12/09 10:36:01;;;;;;;46.57;22.43;;;;;;;;;;5007591;28;20275;-76
2020/12/09 10:38:27;;;;;;;65.43;25.00;;;;;;;;;;5007571;28;20288;-76
2020/12/09 10:40:53;;;;;;;55.47;25.07;;;;;;;;;;5006031;28;20368;-75
2020/12/09 10:43:20;;;;;;;63.83;25.10;;;;;;;;;;5002426;28;20281;-76
2020/12/09 10:45:46;;;;;;;72.47;27.30;;;;;;;;;;5007239;28;20288;-75
2020/12/09 10:48:12;;;;;;;89.40;26.87;;;;;;;;;;5009078;28;20304;-74
2020/12/09 10:50:38;;;;;;;124.77;27.80;;;;;;;;;;4998320;28;20862;-75
2020/12/09 10:53:04;;;;;;;150.17;34.27;;;;;;;;;;5005182;28;20738;-77
2020/12/09 10:55:31;;;;;;;88.73;27.97;;;;;;;;;;5008831;28;20268;-76
2020/12/09 10:57:57;;;;;;;94.23;28.53;;;;;;;;;;5008110;28;20273;-76
2020/12/09 11:00:23;;;;;;;92.80;29.23;;;;;;;;;;5007247;28;20289;-76
2020/12/09 11:02:49;;;;;;;119.33;29.70;;;;;;;;;;5007556;28;20335;-76
2020/12/09 11:05:15;;;;;;;114.57;28.10;;;;;;;;;;5008419;28;20253;-76
2020/12/09 11:07:41;;;;;;;77.33;27.07;;;;;;;;;;5006177;28;20334;-77
2020/12/09 11:10:07;;;;;;;115.27;30.43;;;;;;;;;;5007619;28;20679;-76
2020/12/09 11:12:34;;;;;;;93.23;32.13;;;;;;;;;;5008921;28;20253;-76
2020/12/09 11:15:00;;;;;;;71.13;29.37;;;;;;;;;;5007756;28;20699;-76
2020/12/09 11:17:26;;;;;;;87.43;27.10;;;;;;;;;;5006676;28;20280;-77
2020/12/09 11:19:52;;;;;;;85.47;26.67;;;;;;;;;;5010587;28;20296;-77
2020/12/09 11:22:18;;;;;;;62.97;26.10;;;;;;;;;;5008466;28;20269;-77
2020/12/09 11:24:44;;;;;;;55.33;24.60;;;;;;;;;;5009087;28;20271;-75
2020/12/09 11:27:10;;;;;;;70.87;27.83;;;;;;;;;;5007283;28;20295;-77
2020/12/09 11:29:38;;;;;;;59.93;25.27;;;;;;;;;;5009253;28;20340;-76
2020/12/09 11:32:04;;;;;;;73.47;26.73;;;;;;;;;;5010176;28;20949;-76
2020/12/09 11:34:30;;;;;;;60.13;26.33;;;;;;;;;;5007867;28;20268;-77
2020/12/09 11:37:03;;;;;;;53.47;24.70;;;;;;;;;;5008854;28;20747;-76
2020/12/09 11:39:30;;;;;;;59.65;24.92;;;;;;;;;;5001668;28;20297;-76
2020/12/09 11:42:01;;;;;;;53.63;23.20;;;;;;;;;;5006244;28;20552;-76
2020/12/09 11:44:27;;;;;;;44.27;20.80;;;;;;;;;;5008683;28;20396;-75
2020/12/09 11:46:53;;;;;;;54.03;24.23;;;;;;;;;;5008567;28;20668;-77
2020/12/09 11:49:19;;;;;;;49.20;24.77;;;;;;;;;;5009522;28;20696;-76
2020/12/09 11:51:48;;;;;;;48.13;22.83;;;;;;;;;;5003879;28;20277;-76
2020/12/09 11:54:14;;;;;;;49.97;22.63;;;;;;;;;;5010702;28;20351;-77
2020/12/09 11:56:41;;;;;;;44.03;21.57;;;;;;;;;;5008330;28;20272;-76
2020/12/09 11:59:07;;;;;;;50.33;23.63;;;;;;;;;;5009207;28;20273;-78
2020/12/09 12:01:33;;;;;;;51.13;24.20;;;;;;;;;;5007837;28;20284;-77
2020/12/09 12:03:59;;;;;;;46.77;23.53;;;;;;;;;;5007426;28;20752;-78
2020/12/09 12:06:25;;;;;;;46.67;24.03;;;;;;;;;;5006421;28;20318;-78
2020/12/09 12:08:53;;;;;;;45.27;22.70;;;;;;;;;;5011073;28;20308;-77
2020/12/09 12:11:19;;;;;;;40.63;21.47;;;;;;;;;;5008024;28;20274;-78
2020/12/09 12:13:46;;;;;;;45.47;22.57;;;;;;;;;;5010532;28;20309;-78
2020/12/09 12:16:13;;;;;;;40.57;21.67;;;;;;;;;;5008168;28;20285;-77
2020/12/09 12:18:39;;;;;;;36.87;19.33;;;;;;;;;;5004231;28;20281;-77
2020/12/09 12:21:05;;;;;;;38.33;20.30;;;;;;;;;;5005545;28;20396;-78
2020/12/09 12:23:31;;;;;;;36.90;20.27;;;;;;;;;;5013125;28;20268;-78
2020/12/09 12:25:57;;;;;;;37.07;19.27;;;;;;;;;;5012879;28;20280;-79
2020/12/09 12:28:24;;;;;;;40.63;19.97;;;;;;;;;;5012276;28;20285;-78
2020/12/09 12:30:50;;;;;;;42.10;22.57;;;;;;;;;;5009102;28;20268;-78
2020/12/09 12:33:16;;;;;;;40.87;20.60;;;;;;;;;;5013618;28;20284;-78
2020/12/09 12:35:43;;;;;;;38.97;21.37;;;;;;;;;;5013727;28;20783;-79
2020/12/09 12:38:09;;;;;;;37.37;18.90;;;;;;;;;;5017095;28;20304;-78
2020/12/09 12:40:35;;;;;;;35.03;19.40;;;;;;;;;;5027446;28;20292;-79
2020/12/09 12:43:01;;;;;;;36.43;19.13;;;;;;;;;;5015214;28;20965;-79
2020/12/09 12:45:27;;;;;;;34.60;20.27;;;;;;;;;;5014201;28;20265;-80
2020/12/09 12:47:53;;;;;;;37.70;20.90;;;;;;;;;;5013809;28;20264;-79
2020/12/09 12:50:19;;;;;;;46.23;25.73;;;;;;;;;;5009197;28;20861;-80
2020/12/09 12:52:45;;;;;;;39.63;22.00;;;;;;;;;;5012976;28;20261;-81
2020/12/09 12:55:13;;;;;;;37.53;20.73;;;;;;;;;;5014995;28;20281;-79
2020/12/09 12:57:39;;;;;;;40.57;22.23;;;;;;;;;;5014022;28;20953;-79
2020/12/09 13:00:05;;;;;;;39.87;21.07;;;;;;;;;;5014319;28;20285;-80
2020/12/09 13:02:32;;;;;;;41.00;21.13;;;;;;;;;;5015783;28;20269;-80
2020/12/09 13:04:58;;;;;;;48.23;23.27;;;;;;;;;;5014538;28;20318;-80
2020/12/09 13:07:25;;;;;;;41.53;21.17;;;;;;;;;;5014103;28;20273;-78
2020/12/09 13:09:51;;;;;;;40.83;21.10;;;;;;;;;;5015802;28;20380;-80
2020/12/09 13:12:23;;;;;;;40.33;21.37;;;;;;;;;;5014222;28;20265;-79
2020/12/09 13:14:49;;;;;;;41.30;20.17;;;;;;;;;;5013859;28;20261;-79
2020/12/09 13:17:19;;;;;;;41.20;21.13;;;;;;;;;;5013919;28;21355;-80
2020/12/09 13:19:46;;;;;;;39.43;21.43;;;;;;;;;;5010047;28;20276;-79
2020/12/09 13:22:12;;;;;;;40.63;21.83;;;;;;;;;;5013475;28;20311;-79
2020/12/09 13:24:38;;;;;;;36.77;20.53;;;;;;;;;;5013728;28;20953;-80
2020/12/09 13:27:06;;;;;;;38.90;20.40;;;;;;;;;;5012730;28;20800;-79
2020/12/09 13:29:32;;;;;;;34.57;19.70;;;;;;;;;;5015621;28;20956;-81
2020/12/09 13:31:59;;;;;;;35.20;19.50;;;;;;;;;;5013208;28;20273;-80
2020/12/09 13:34:25;;;;;;;38.27;19.93;;;;;;;;;;5013005;28;20280;-79
2020/12/09 13:36:53;;;;;;;37.73;19.33;;;;;;;;;;5011229;28;20273;-80
2020/12/09 13:39:19;;;;;;;33.73;18.00;;;;;;;;;;5012498;28;20265;-79
2020/12/09 13:41:48;;;;;;;38.63;18.07;;;;;;;;;;5012002;28;20289;-81
2020/12/09 13:44:15;;;;;;;33.67;18.23;;;;;;;;;;5013043;28;20279;-82
2020/12/09 13:46:41;;;;;;;36.73;19.03;;;;;;;;;;5011396;28;20287;-82
2020/12/09 13:49:07;;;;;;;30.67;17.03;;;;;;;;;;5010561;28;20996;-82
2020/12/09 13:51:33;;;;;;;32.90;17.27;;;;;;;;;;5010070;28;20261;-81
2020/12/09 13:53:59;;;;;;;31.63;17.37;;;;;;;;;;5006491;28;20768;-82
2020/12/09 13:56:26;;;;;;;30.77;17.57;;;;;;;;;;5014277;28;20277;-81
2020/12/09 13:58:52;;;;;;;32.80;17.37;;;;;;;;;;5012137;28;21059;-83
2020/12/09 14:01:18;;;;;;;33.80;16.47;;;;;;;;;;5011490;28;20285;-81
2020/12/09 14:03:44;;;;;;;33.27;17.57;;;;;;;;;;5006882;28;20261;-82
2020/12/09 14:06:12;;;;;;;33.43;17.67;;;;;;;;;;5010131;28;20272;-82
2020/12/09 14:08:38;;;;;;;33.67;18.57;;;;;;;;;;5014386;28;20264;-81
2020/12/09 14:11:04;;;;;;;33.87;17.73;;;;;;;;;;5012341;28;20357;-81
2020/12/09 14:13:30;;;;;;;32.30;16.30;;;;;;;;;;5012237;28;20268;-81
2020/12/09 14:15:56;;;;;;;29.60;15.40;;;;;;;;;;5011651;28;20775;-79